Time;durP1;ratioP1;P1;durP2;ratioP2;P2;SDS_P1;SDS_P2;PMS_P1;PMS_P2;Temp;Humidity;BMP_temperature;BMP_pressure;BME280_temperature;BME280_humidity;BME280_pressure;Samples;Min_cycle;Max_cycle;Signal;HPM_P1;HPM_P2
2022/09/14 00:02:01;;;;;;;3.40;1.37;;;14.90;1.00;;;;;;5084264;28;20420;-72
2022/09/14 00:04:27;;;;;;;11.87;2.13;;;14.80;1.00;;;;;;5074331;28;20485;-72
2022/09/14 00:17:06;;;;;;;5.20;2.40;;;14.70;1.00;;;;;;5091130;28;20392;-71
2022/09/14 00:19:32;;;;;;;4.43;1.47;;;14.70;1.00;;;;;;5094080;28;20799;-71
2022/09/14 00:21:59;;;;;;;8.60;1.73;;;14.60;1.00;;;;;;5059110;28;20398;-71
2022/09/14 00:24:29;;;;;;;8.67;1.87;;;14.60;1.00;;;;;;5073309;28;20996;-74
2022/09/14 00:26:58;;;;;;;6.20;1.90;;;14.60;1.00;;;;;;5073263;28;20955;-70
2022/09/14 00:29:24;;;;;;;7.63;1.57;;;14.50;1.70;;;;;;5075881;28;20923;-77
2022/09/14 00:31:51;;;;;;;4.03;1.80;;;14.50;3.20;;;;;;5075353;28;20477;-76
2022/09/14 00:34:17;;;;;;;3.40;1.47;;;14.50;11.10;;;;;;5073676;28;20404;-76
2022/09/14 00:36:55;;;;;;;12.10;2.10;;;14.50;8.50;;;;;;5089298;28;20446;-70
2022/09/14 00:39:23;;;;;;;5.27;1.90;;;14.50;14.10;;;;;;5092082;28;20443;-76
2022/09/14 00:41:51;;;;;;;6.20;1.97;;;14.50;22.50;;;;;;5090687;28;20427;-76
2022/09/14 00:44:17;;;;;;;6.83;1.73;;;14.50;20.90;;;;;;5093036;28;20400;-75
2022/09/14 00:46:45;;;;;;;12.10;3.00;;;14.60;21.30;;;;;;5054774;28;20463;-70
2022/09/14 00:49:33;;;;;;;12.47;2.40;;;14.50;18.50;;;;;;5073407;28;20416;-76
2022/09/14 00:52:08;;;;;;;7.57;1.83;;;14.50;21.10;;;;;;5055649;28;20413;-76
2022/09/14 00:54:46;;;;;;;4.87;2.63;;;14.50;23.10;;;;;;5056338;28;20923;-71
2022/09/14 00:57:13;;;;;;;5.97;2.00;;;14.50;11.50;;;;;;5092699;28;20919;-76
2022/09/14 00:59:41;;;;;;;6.43;1.90;;;14.60;19.50;;;;;;5091169;28;20428;-74
2022/09/14 01:02:13;;;;;;;11.03;2.57;;;14.70;18.30;;;;;;5055354;28;20419;-71
2022/09/14 01:04:40;;;;;;;5.10;1.50;;;14.80;16.70;;;;;;5055771;28;20526;-76
2022/09/14 01:07:09;;;;;;;4.83;1.83;;;14.80;14.00;;;;;;5074497;28;20552;-71
2022/09/14 01:10:02;;;;;;;8.07;3.03;;;14.80;13.40;;;;;;5075143;28;20439;-72
2022/09/14 01:12:50;;;;;;;5.30;1.60;;;14.70;9.50;;;;;;5055224;28;20405;-76
2022/09/14 01:15:41;;;;;;;9.53;2.63;;;14.70;13.40;;;;;;5059713;28;20486;-76
2022/09/14 01:18:17;;;;;;;6.07;2.37;;;14.80;15.90;;;;;;5073972;28;20418;-76
2022/09/14 01:20:57;;;;;;;5.40;2.40;;;14.80;12.80;;;;;;5078624;28;20423;-76
2022/09/14 01:23:56;;;;;;;1.50;1.37;;;14.80;8.90;;;;;;5038988;28;20420;-71
2022/09/14 01:27:11;;;;;;;4.30;1.40;;;14.90;12.20;;;;;;5043561;28;20470;-76
2022/09/14 01:29:43;;;;;;;8.00;2.10;;;14.70;6.40;;;;;;5076601;28;20431;-76
2022/09/14 01:32:15;;;;;;;4.23;1.70;;;14.80;6.40;;;;;;5093204;28;20461;-76
2022/09/14 01:35:02;;;;;;;3.53;1.70;;;14.80;7.60;;;;;;5071470;28;20410;-75
2022/09/14 01:37:48;;;;;;;2.80;1.90;;;14.80;11.50;;;;;;5077538;28;20430;-71
2022/09/14 01:40:24;;;;;;;7.90;1.87;;;14.80;10.40;;;;;;5066317;28;20901;-70
2022/09/14 01:42:55;;;;;;;6.60;2.70;;;14.80;14.70;;;;;;5092937;28;20482;-75
2022/09/14 01:45:24;;;;;;;14.43;1.97;;;14.80;13.30;;;;;;5080594;28;20416;-76
2022/09/14 01:47:55;;;;;;;9.60;2.80;;;14.70;5.00;;;;;;5053780;28;20490;-71
2022/09/14 01:50:43;;;;;;;11.10;2.33;;;14.70;12.90;;;;;;5087554;28;20487;-76
2022/09/14 01:53:33;;;;;;;5.93;1.93;;;14.70;11.80;;;;;;5074895;28;20439;-76
2022/09/14 01:56:07;;;;;;;10.00;2.20;;;14.80;12.70;;;;;;5092030;28;20900;-74
2022/09/14 01:59:04;;;;;;;9.47;2.53;;;14.80;16.10;;;;;;5074895;28;20576;-71
2022/09/14 02:01:36;;;;;;;7.23;2.70;;;14.90;18.40;;;;;;5072669;28;20901;-76
2022/09/14 02:04:07;;;;;;;8.97;2.10;;;14.90;22.00;;;;;;5057080;28;20425;-76
2022/09/14 02:06:38;;;;;;;14.97;2.27;;;14.90;22.20;;;;;;5073752;28;21096;-75
2022/09/14 02:09:06;;;;;;;7.33;1.57;;;14.90;20.10;;;;;;5072176;28;20466;-76
2022/09/14 02:11:32;;;;;;;2.67;1.80;;;14.90;18.10;;;;;;5073403;28;20415;-70
2022/09/14 02:13:58;;;;;;;4.67;1.37;;;14.80;23.50;;;;;;5059251;28;20420;-71
2022/09/14 02:16:25;;;;;;;3.00;1.50;;;14.90;26.00;;;;;;5095660;28;20793;-75
2022/09/14 02:18:54;;;;;;;6.87;2.00;;;14.90;22.40;;;;;;5078359;28;20435;-76
2022/09/14 02:21:24;;;;;;;4.90;2.10;;;14.90;16.40;;;;;;5058433;28;20778;-70
2022/09/14 02:23:50;;;;;;;7.27;2.10;;;14.90;11.40;;;;;;5058248;28;20419;-76
2022/09/14 02:26:18;;;;;;;8.07;2.00;;;14.90;14.20;;;;;;5076316;28;21022;-70
2022/09/14 02:28:44;;;;;;;5.87;3.00;;;14.90;18.10;;;;;;5096066;28;20420;-76
2022/09/14 02:31:51;;;;;;;4.27;2.37;;;14.90;20.70;;;;;;5078190;28;20781;-75
2022/09/14 02:34:20;;;;;;;4.97;2.03;;;14.80;15.10;;;;;;5077297;28;20904;-70
2022/09/14 02:37:09;;;;;;;8.40;2.17;;;14.80;20.10;;;;;;5077511;28;20415;-76
2022/09/14 02:39:57;;;;;;;5.37;2.07;;;14.80;19.30;;;;;;5074208;28;20512;-76
2022/09/14 02:42:38;;;;;;;6.60;3.50;;;14.70;18.10;;;;;;5076015;28;20443;-75
2022/09/14 02:45:26;;;;;;;6.67;2.00;;;14.80;22.30;;;;;;5082263;28;20419;-74
2022/09/14 02:48:05;;;;;;;9.60;1.70;;;14.80;22.70;;;;;;5076640;28;20470;-76
2022/09/14 02:50:52;;;;;;;5.43;2.00;;;14.70;17.40;;;;;;5071473;28;20420;-76
2022/09/14 02:53:34;;;;;;;10.33;3.30;;;14.70;13.20;;;;;;5092112;28;20448;-71
2022/09/14 02:56:09;;;;;;;10.20;2.40;;;14.70;15.30;;;;;;5077202;28;20412;-74
2022/09/14 02:58:42;;;;;;;8.43;2.27;;;14.70;24.20;;;;;;5077112;28;20446;-71
2022/09/14 03:01:11;;;;;;;3.17;2.03;;;14.60;10.80;;;;;;5095448;28;20415;-71
2022/09/14 03:03:37;;;;;;;5.67;2.40;;;14.50;23.40;;;;;;5064446;28;20470;-71
2022/09/14 03:06:04;;;;;;;6.20;2.00;;;14.50;10.10;;;;;;5074358;28;20403;-71
2022/09/14 03:08:30;;;;;;;3.67;2.20;;;14.40;17.10;;;;;;5086235;28;20435;-70
2022/09/14 03:10:56;;;;;;;11.67;2.03;;;14.40;20.10;;;;;;5077982;28;20424;-76
2022/09/14 03:13:22;;;;;;;3.33;1.90;;;14.40;21.20;;;;;;5093668;28;20920;-75
2022/09/14 03:15:49;;;;;;;5.30;2.30;;;14.40;16.20;;;;;;5077212;28;20747;-70
2022/09/14 03:18:15;;;;;;;6.93;2.70;;;14.40;16.00;;;;;;5086776;28;20440;-76
2022/09/14 03:20:41;;;;;;;3.50;1.93;;;14.40;21.60;;;;;;5057098;28;20435;-76
2022/09/14 03:23:10;;;;;;;6.63;2.17;;;14.40;26.20;;;;;;5061666;28;20395;-70
2022/09/14 03:25:38;;;;;;;3.63;1.87;;;14.40;26.10;;;;;;5095316;28;20404;-75
2022/09/14 03:28:05;;;;;;;4.83;2.53;;;14.40;21.40;;;;;;5089077;28;20551;-76
2022/09/14 03:30:31;;;;;;;10.50;3.03;;;14.30;19.80;;;;;;5057116;28;20392;-71
2022/09/14 03:36:15;;;;;;;9.70;2.00;;;14.40;34.00;;;;;;5094949;28;20407;-76
2022/09/14 03:38:45;;;;;;;5.27;1.93;;;14.40;28.80;;;;;;5086202;28;20456;-70
2022/09/14 03:41:12;;;;;;;5.90;2.00;;;14.40;20.50;;;;;;5074842;28;20405;-70
2022/09/14 03:43:38;;;;;;;10.80;2.33;;;14.50;21.50;;;;;;5081559;28;20419;-72
2022/09/14 03:46:09;;;;;;;5.77;1.77;;;14.40;17.60;;;;;;5093979;28;20472;-69
2022/09/14 03:48:35;;;;;;;9.80;2.40;;;14.40;21.60;;;;;;5070219;28;20436;-76
2022/09/14 03:51:03;;;;;;;10.63;2.17;;;14.30;20.10;;;;;;5056687;28;20405;-76
2022/09/14 03:53:29;;;;;;;7.73;2.80;;;14.30;18.10;;;;;;5061252;28;20431;-71
2022/09/14 03:55:55;;;;;;;9.13;1.80;;;14.30;17.10;;;;;;5076458;28;20947;-76
2022/09/14 03:58:21;;;;;;;6.33;3.27;;;14.20;29.90;;;;;;5072705;28;20779;-76
2022/09/14 04:00:48;;;;;;;6.20;1.90;;;14.20;24.90;;;;;;5056277;28;21014;-76
2022/09/14 04:03:14;;;;;;;6.23;2.10;;;14.20;25.20;;;;;;5075312;28;20409;-75
2022/09/14 04:05:40;;;;;;;5.37;2.80;;;14.30;17.60;;;;;;5094567;28;20367;-71
2022/09/14 04:08:06;;;;;;;2.63;2.10;;;14.30;28.60;;;;;;5093269;28;20489;-76
2022/09/14 04:10:32;;;;;;;4.50;2.10;;;14.30;13.90;;;;;;5074980;28;20411;-75
2022/09/14 04:13:00;;;;;;;5.17;2.30;;;14.30;22.70;;;;;;5094446;28;20170;-76
2022/09/14 04:15:29;;;;;;;6.03;2.40;;;14.20;14.20;;;;;;5075760;28;20811;-69
2022/09/14 04:17:55;;;;;;;4.00;2.47;;;14.10;9.60;;;;;;5072968;28;20463;-69
2022/09/14 04:20:21;;;;;;;5.67;2.63;;;14.00;9.20;;;;;;5090517;28;20437;-74
2022/09/14 04:22:47;;;;;;;10.33;2.60;;;13.90;3.20;;;;;;5094266;28;20427;-76
2022/09/14 04:25:13;;;;;;;9.30;2.97;;;13.90;23.90;;;;;;5090125;28;20423;-70
2022/09/14 04:27:45;;;;;;;9.53;2.50;;;13.90;17.40;;;;;;5092596;28;20429;-75
2022/09/14 04:30:12;;;;;;;10.33;2.70;;;13.90;12.00;;;;;;5094115;28;20165;-70
2022/09/14 04:32:38;;;;;;;6.17;2.07;;;13.80;10.90;;;;;;5091357;28;20566;-70
2022/09/14 04:35:04;;;;;;;8.37;2.53;;;13.70;12.40;;;;;;5055133;28;20892;-74
2022/09/14 04:37:31;;;;;;;5.77;1.97;;;13.80;13.20;;;;;;5073179;28;20177;-75
2022/09/14 04:39:57;;;;;;;10.77;2.93;;;13.80;14.70;;;;;;5075295;28;20421;-71
2022/09/14 04:42:23;;;;;;;6.20;2.30;;;13.80;12.50;;;;;;5093829;28;20378;-70
2022/09/14 04:44:49;;;;;;;4.43;2.03;;;13.80;24.60;;;;;;5074219;28;20402;-75
2022/09/14 04:47:15;;;;;;;8.30;2.83;;;13.80;12.80;;;;;;5072385;28;20201;-76
2022/09/14 04:49:41;;;;;;;4.33;2.87;;;13.80;15.70;;;;;;5090590;28;20193;-74
2022/09/14 04:52:07;;;;;;;6.83;2.40;;;13.80;14.70;;;;;;5093491;28;20170;-75
2022/09/14 04:54:32;;;;;;;5.10;2.13;;;13.80;6.10;;;;;;5060042;28;20484;-75
2022/09/14 04:56:58;;;;;;;8.10;2.40;;;13.90;37.40;;;;;;5072129;28;20162;-70
2022/09/14 04:59:24;;;;;;;5.00;2.27;;;13.90;24.80;;;;;;5068727;28;21025;-75
2022/09/14 05:01:50;;;;;;;5.17;2.13;;;13.90;22.10;;;;;;5075394;28;20411;-70
2022/09/14 05:04:16;;;;;;;4.70;2.70;;;13.90;17.70;;;;;;5081452;28;20445;-75
2022/09/14 05:06:52;;;;;;;3.60;1.97;;;13.90;16.00;;;;;;5072263;28;20440;-76
2022/09/14 05:09:18;;;;;;;6.27;2.83;;;13.90;11.60;;;;;;5084196;28;20923;-76
2022/09/14 05:11:44;;;;;;;5.63;2.30;;;13.90;14.30;;;;;;5075277;28;20437;-75
2022/09/14 05:14:12;;;;;;;10.20;1.97;;;13.90;18.50;;;;;;5083252;28;20390;-74
2022/09/14 05:16:40;;;;;;;6.93;2.67;;;13.90;12.50;;;;;;5072057;28;20692;-76
2022/09/14 05:19:09;;;;;;;6.70;2.23;;;13.90;11.10;;;;;;5063132;28;20410;-74
2022/09/14 05:21:37;;;;;;;5.63;2.73;;;14.00;16.70;;;;;;5093305;28;20428;-70
2022/09/14 05:24:07;;;;;;;7.07;2.60;;;14.00;13.10;;;;;;5067633;28;20459;-75
2022/09/14 05:26:33;;;;;;;7.23;3.10;;;14.00;26.40;;;;;;5071917;28;20552;-74
2022/09/14 05:29:01;;;;;;;5.10;2.03;;;14.00;12.80;;;;;;5078657;28;20427;-75
2022/09/14 05:31:28;;;;;;;10.40;2.47;;;14.00;15.20;;;;;;5093200;28;20909;-70
2022/09/14 05:34:54;;;;;;;4.33;2.93;;;14.00;14.50;;;;;;5088034;28;20950;-71
2022/09/14 05:37:20;;;;;;;7.40;2.33;;;14.00;5.80;;;;;;5058413;28;20474;-76
2022/09/14 05:39:46;;;;;;;3.63;1.80;;;14.00;6.10;;;;;;5083576;28;20455;-74
2022/09/14 05:42:12;;;;;;;2.80;1.90;;;14.00;2.10;;;;;;5093189;28;20404;-76
2022/09/14 05:44:37;;;;;;;3.50;1.57;;;14.00;3.10;;;;;;5083117;28;20170;-74
2022/09/14 05:47:03;;;;;;;4.03;1.77;;;14.10;9.00;;;;;;5073741;28;20204;-76
2022/09/14 05:49:29;;;;;;;4.17;2.57;;;14.10;5.50;;;;;;5088084;28;20216;-73
2022/09/14 05:51:55;;;;;;;7.33;2.30;;;14.10;1.00;;;;;;5085792;28;20166;-75
2022/09/14 05:54:24;;;;;;;7.67;3.00;;;14.10;8.20;;;;;;5076809;28;20194;-73
2022/09/14 05:56:50;;;;;;;7.53;1.90;;;14.10;19.90;;;;;;5084665;28;20411;-74
2022/09/14 05:59:15;;;;;;;3.87;1.57;;;14.10;6.40;;;;;;5097022;28;20398;-75
2022/09/14 06:01:41;;;;;;;7.37;2.37;;;14.10;17.70;;;;;;5089675;28;20178;-75
2022/09/14 06:04:10;;;;;;;5.57;2.10;;;14.10;10.80;;;;;;5076352;28;20261;-70
2022/09/14 06:06:36;;;;;;;7.73;2.20;;;14.10;9.60;;;;;;5076754;28;20444;-68
2022/09/14 06:09:02;;;;;;;3.47;1.90;;;14.10;5.80;;;;;;5076110;28;20438;-73
2022/09/14 06:11:32;;;;;;;8.47;2.10;;;14.20;19.50;;;;;;5080181;28;20161;-75
2022/09/14 06:14:32;;;;;;;7.43;2.00;;;14.20;4.20;;;;;;5096658;28;20423;-68
2022/09/14 06:16:49;;;;;;;6.57;1.73;;;14.30;13.00;;;;;;5085079;28;21206;-74
2022/09/14 06:19:15;;;;;;;7.60;1.90;;;14.30;18.90;;;;;;5076211;28;20423;-69
2022/09/14 06:21:42;;;;;;;6.37;1.80;;;14.40;17.30;;;;;;5080540;28;20170;-74
2022/09/14 06:24:11;;;;;;;7.43;2.67;;;14.50;14.80;;;;;;5096552;28;20456;-75
2022/09/14 06:26:38;;;;;;;11.30;2.37;;;14.50;10.10;;;;;;5091933;28;20513;-75
2022/09/14 06:29:04;;;;;;;5.37;2.13;;;14.50;3.10;;;;;;5075903;28;20424;-72
2022/09/14 06:31:30;;;;;;;6.10;1.50;;;14.60;15.50;;;;;;5077246;28;20392;-75
2022/09/14 06:33:56;;;;;;;7.77;2.83;;;14.60;9.30;;;;;;5096355;28;20374;-74
2022/09/14 06:36:24;;;;;;;2.70;2.03;;;14.60;12.30;;;;;;5095283;28;20437;-69
2022/09/14 06:38:51;;;;;;;7.37;1.83;;;14.70;16.00;;;;;;5096147;28;20438;-73
2022/09/14 06:41:22;;;;;;;6.73;1.97;;;14.80;1.00;;;;;;5096506;28;20410;-69
2022/09/14 06:43:48;;;;;;;4.40;1.70;;;14.90;1.00;;;;;;5076528;28;20768;-68
2022/09/14 06:46:20;;;;;;;5.17;1.80;;;14.90;1.00;;;;;;5074697;28;20419;-74
2022/09/14 06:49:05;;;;;;;7.03;2.60;;;14.90;1.00;;;;;;5089855;28;20442;-70
2022/09/14 06:51:37;;;;;;;3.20;2.20;;;14.90;1.00;;;;;;5096115;28;20481;-74
2022/09/14 06:54:05;;;;;;;3.20;2.03;;;14.90;1.00;;;;;;5095985;28;20449;-74
2022/09/14 06:56:33;;;;;;;6.80;1.87;;;14.90;1.00;;;;;;5089296;28;20431;-68
2022/09/14 06:59:00;;;;;;;11.47;1.47;;;14.90;1.00;;;;;;5097751;28;20472;-72
2022/09/14 07:01:26;;;;;;;7.17;2.00;;;15.00;1.00;;;;;;5095258;28;20428;-74
2022/09/14 07:03:53;;;;;;;6.20;2.90;;;15.00;1.00;;;;;;5095720;28;20396;-74
2022/09/14 07:06:27;;;;;;;3.60;1.83;;;15.00;1.00;;;;;;5095476;28;20447;-74
2022/09/14 07:08:53;;;;;;;5.80;1.63;;;15.10;1.00;;;;;;5095893;28;20927;-69
2022/09/14 07:11:22;;;;;;;3.30;1.63;;;15.10;1.00;;;;;;5095573;28;20426;-69
2022/09/14 07:14:26;;;;;;;3.63;1.80;;;15.20;1.00;;;;;;5095629;28;20741;-74
2022/09/14 07:16:52;;;;;;;2.57;1.40;;;15.30;1.00;;;;;;5094994;28;20467;-75
2022/09/14 07:22:10;;;;;;;6.60;1.47;;;15.50;1.00;;;;;;5095318;28;20193;-68
2022/09/14 07:24:36;;;;;;;4.73;1.70;;;15.50;1.00;;;;;;5095383;28;20405;-69
2022/09/14 07:27:02;;;;;;;4.50;1.23;;;15.50;1.00;;;;;;5094819;28;20526;-71
2022/09/14 07:29:27;;;;;;;4.40;1.53;;;15.60;1.00;;;;;;5095122;28;20185;-74
2022/09/14 07:31:53;;;;;;;3.80;1.60;;;15.50;1.00;;;;;;5095194;28;20785;-69
2022/09/14 07:34:20;;;;;;;3.10;1.80;;;15.50;1.00;;;;;;5095339;28;20166;-69
2022/09/14 07:36:46;;;;;;;3.80;1.10;;;15.60;1.00;;;;;;5094326;28;20168;-69
2022/09/14 07:39:14;;;;;;;7.13;2.53;;;15.60;1.00;;;;;;5094709;28;20833;-68
2022/09/14 07:41:42;;;;;;;4.03;1.70;;;15.70;1.00;;;;;;5095154;28;20399;-74
2022/09/14 07:44:11;;;;;;;5.33;1.30;;;15.70;1.00;;;;;;5095021;28;20399;-73
2022/09/14 07:46:42;;;;;;;8.97;2.00;;;15.80;1.00;;;;;;5094224;28;20530;-74
2022/09/14 07:49:09;;;;;;;4.73;1.17;;;15.90;1.00;;;;;;5094800;28;20989;-74
2022/09/14 07:51:36;;;;;;;4.00;1.50;;;16.10;1.00;;;;;;5094877;28;20776;-74
2022/09/14 07:54:03;;;;;;;4.67;2.10;;;16.10;1.00;;;;;;5094532;28;20415;-69
2022/09/14 07:56:29;;;;;;;2.20;1.33;;;16.30;1.00;;;;;;5094165;28;20428;-68
2022/09/14 07:58:57;;;;;;;7.63;1.60;;;16.40;1.00;;;;;;5094736;28;20423;-74
2022/09/14 08:01:29;;;;;;;5.40;2.30;;;16.50;1.00;;;;;;5094930;28;20399;-68
2022/09/14 08:04:01;;;;;;;4.10;1.17;;;16.60;1.00;;;;;;5094646;28;20403;-69
2022/09/14 08:06:27;;;;;;;2.10;1.90;;;16.70;1.00;;;;;;5093991;28;20955;-68
2022/09/14 08:08:54;;;;;;;2.57;0.90;;;16.70;1.00;;;;;;5094398;28;20415;-68
2022/09/14 08:11:28;;;;;;;11.20;5.17;;;16.80;1.00;;;;;;5094514;28;20434;-73
2022/09/14 08:14:00;;;;;;;8.13;2.13;;;16.90;1.00;;;;;;5094281;28;20396;-69
2022/09/14 08:16:29;;;;;;;3.13;1.27;;;16.90;1.00;;;;;;5093453;28;20403;-71
2022/09/14 08:18:58;;;;;;;7.90;1.60;;;17.00;1.00;;;;;;5094414;28;20419;-68
2022/09/14 08:21:25;;;;;;;3.73;1.40;;;17.10;1.00;;;;;;5094183;28;20407;-68
2022/09/14 08:23:51;;;;;;;1.40;1.10;;;17.20;1.00;;;;;;5094146;28;20908;-74
2022/09/14 08:26:22;;;;;;;8.80;1.33;;;17.20;1.00;;;;;;5093452;28;20479;-74
2022/09/14 08:28:49;;;;;;;2.13;1.30;;;17.00;1.00;;;;;;5093065;28;20585;-72
2022/09/14 08:31:19;;;;;;;3.50;1.50;;;17.00;1.00;;;;;;5078392;28;20423;-68
2022/09/14 08:33:50;;;;;;;3.73;1.40;;;17.20;1.00;;;;;;5091294;28;20804;-71
2022/09/14 08:36:26;;;;;;;3.30;1.10;;;17.40;1.00;;;;;;5089631;28;20432;-72
2022/09/14 08:38:52;;;;;;;3.80;1.57;;;17.50;1.00;;;;;;5089085;28;20443;-68
2022/09/14 08:41:52;;;;;;;7.13;1.50;;;17.50;1.00;;;;;;5093870;28;20420;-68
2022/09/14 08:44:24;;;;;;;3.17;1.30;;;17.70;1.00;;;;;;5070209;28;20411;-68
2022/09/14 08:47:02;;;;;;;7.73;1.70;;;17.70;1.00;;;;;;5093393;28;20833;-69
2022/09/14 08:49:45;;;;;;;7.90;1.20;;;17.70;1.00;;;;;;5093762;28;20966;-73
2022/09/14 08:52:22;;;;;;;2.77;1.03;;;17.70;1.00;;;;;;5093571;28;20395;-69
2022/09/14 08:54:54;;;;;;;1.40;1.30;;;17.60;1.00;;;;;;5093736;28;20394;-68
2022/09/14 08:57:31;;;;;;;3.23;1.27;;;17.60;1.00;;;;;;5092957;28;21022;-68
2022/09/14 09:00:09;;;;;;;5.33;1.70;;;17.60;1.00;;;;;;5092867;28;20918;-74
2022/09/14 09:03:32;;;;;;;2.30;1.33;;;17.60;1.00;;;;;;5093002;28;20400;-68
2022/09/14 09:06:19;;;;;;;3.47;1.53;;;17.70;1.00;;;;;;4968593;28;20433;-69
2022/09/14 09:15:50;;;;;;;;;;;;;;;;;;;;;
2022/09/14 09:18:57;;;;;;;1.80;1.37;;;17.60;1.00;;;;;;5071599;28;20420;-73
2022/09/14 09:21:32;;;;;;;1.67;1.20;;;17.60;1.00;;;;;;5074842;28;20424;-74
2022/09/14 09:24:19;;;;;;;2.80;1.20;;;17.60;1.00;;;;;;5073276;28;20418;-74
2022/09/14 09:26:45;;;;;;;3.17;1.00;;;17.50;1.00;;;;;;5072226;28;20868;-67
2022/09/14 09:29:11;;;;;;;3.17;1.17;;;17.50;1.00;;;;;;5073495;28;20498;-73
2022/09/14 09:31:46;;;;;;;4.97;1.60;;;17.30;1.00;;;;;;5079919;28;20261;-74
2022/09/14 09:34:34;;;;;;;1.93;1.00;;;17.30;1.00;;;;;;5058181;28;20497;-74
2022/09/14 09:37:00;;;;;;;3.27;2.13;;;17.40;1.00;;;;;;5092299;28;20450;-74
2022/09/14 09:39:30;;;;;;;6.97;1.63;;;17.50;1.00;;;;;;5074613;28;20452;-68
2022/09/14 09:42:28;;;;;;;4.23;1.30;;;17.50;1.00;;;;;;5092981;28;20408;-74
2022/09/14 09:45:13;;;;;;;1.73;1.23;;;17.50;1.00;;;;;;5029362;28;20475;-71
2022/09/14 09:47:41;;;;;;;4.20;1.40;;;17.40;1.00;;;;;;5072209;28;20467;-71
2022/09/14 09:50:27;;;;;;;2.50;1.20;;;17.40;1.00;;;;;;5075580;28;20424;-70
2022/09/14 09:52:58;;;;;;;16.57;1.63;;;17.40;1.00;;;;;;5072489;28;20499;-69
2022/09/14 09:55:31;;;;;;;6.10;2.97;;;17.40;1.00;;;;;;5075638;28;20416;-73
2022/09/14 09:58:22;;;;;;;2.90;1.40;;;17.30;1.00;;;;;;5073969;28;20511;-72
2022/09/14 10:00:58;;;;;;;3.20;1.20;;;17.20;1.00;;;;;;5082490;28;20989;-70
2022/09/14 10:03:30;;;;;;;3.73;1.30;;;17.20;1.00;;;;;;5092819;28;20412;-70
2022/09/14 10:06:10;;;;;;;1.80;1.40;;;17.20;1.00;;;;;;5092428;28;20418;-71
2022/09/14 10:08:43;;;;;;;4.10;1.47;;;17.40;1.00;;;;;;5091104;28;20465;-71
2022/09/14 10:11:36;;;;;;;3.80;1.80;;;17.60;1.00;;;;;;5090876;28;20441;-69
2022/09/14 10:14:19;;;;;;;2.23;1.30;;;18.00;1.00;;;;;;5092760;28;20490;-70
2022/09/14 10:16:46;;;;;;;5.23;1.53;;;18.10;1.00;;;;;;5070854;28;20428;-71
2022/09/14 10:19:14;;;;;;;6.33;1.13;;;18.00;1.00;;;;;;5072306;28;20972;-71
2022/09/14 10:22:11;;;;;;;3.50;1.30;;;17.90;1.00;;;;;;5072488;28;20405;-74
2022/09/14 10:24:37;;;;;;;3.90;1.50;;;17.90;1.00;;;;;;5072359;28;20438;-75
2022/09/14 10:27:38;;;;;;;3.20;1.07;;;17.90;1.00;;;;;;5076980;28;20467;-71
2022/09/14 10:30:11;;;;;;;1.70;1.10;;;17.90;1.00;;;;;;5096766;28;20452;-72
2022/09/14 10:32:39;;;;;;;6.40;1.40;;;18.10;1.00;;;;;;5082337;28;20439;-71
2022/09/14 10:35:13;;;;;;;3.33;1.13;;;18.20;1.00;;;;;;5088515;28;20457;-74
2022/09/14 10:37:56;;;;;;;2.30;1.00;;;18.20;1.00;;;;;;5091769;28;20540;-73
2022/09/14 10:40:35;;;;;;;2.10;1.00;;;18.20;1.00;;;;;;5081857;28;20940;-73
2022/09/14 10:43:10;;;;;;;8.03;1.43;;;18.40;1.00;;;;;;5115099;28;20914;-73
2022/09/14 10:46:04;;;;;;;2.50;0.90;;;18.40;1.00;;;;;;5058921;28;20953;-74
2022/09/14 10:48:50;;;;;;;2.63;1.10;;;18.40;1.00;;;;;;5100127;28;20891;-70
2022/09/14 10:51:59;;;;;;;2.93;1.13;;;18.20;1.00;;;;;;5109422;28;20415;-71
2022/09/14 10:54:59;;;;;;;2.93;1.00;;;18.00;1.00;;;;;;5076006;28;20474;-72
2022/09/14 10:57:36;;;;;;;2.17;1.30;;;17.70;1.00;;;;;;5076071;28;20430;-73
2022/09/14 11:00:31;;;;;;;2.30;1.00;;;17.80;1.00;;;;;;5089436;28;20478;-75
2022/09/14 11:03:15;;;;;;;6.70;1.23;;;17.80;1.00;;;;;;5057598;28;20754;-74
2022/09/14 11:05:57;;;;;;;4.70;3.13;;;17.80;1.00;;;;;;5075485;28;20443;-74
2022/09/14 11:08:39;;;;;;;4.50;1.20;;;17.80;1.00;;;;;;5074821;28;20448;-75
2022/09/14 11:11:30;;;;;;;9.27;1.33;;;17.90;1.00;;;;;;5074705;28;20404;-75
2022/09/14 11:14:06;;;;;;;1.93;1.50;;;17.80;1.00;;;;;;5075428;28;20397;-76
2022/09/14 11:20:01;;;;;;;1.53;1.17;;;17.90;1.00;;;;;;5003353;28;20424;-75
2022/09/14 11:22:57;;;;;;;2.40;1.00;;;17.90;1.00;;;;;;5075140;28;20404;-74
2022/09/14 11:25:41;;;;;;;6.43;1.53;;;18.10;1.00;;;;;;5075057;28;20396;-73
2022/09/14 11:28:26;;;;;;;5.30;1.20;;;18.30;1.00;;;;;;5074060;28;20539;-75
2022/09/14 11:31:02;;;;;;;3.00;1.07;;;18.50;1.00;;;;;;5074457;28;20407;-72
2022/09/14 11:33:43;;;;;;;3.43;1.27;;;18.50;1.00;;;;;;5074880;28;20822;-72
2022/09/14 11:36:44;;;;;;;5.77;1.17;;;18.40;1.00;;;;;;5074105;28;20873;-73
2022/09/14 11:39:27;;;;;;;4.20;1.90;;;18.60;1.00;;;;;;5074009;28;20460;-73
2022/09/14 11:42:05;;;;;;;2.80;0.80;;;18.80;1.00;;;;;;5074601;28;20416;-76
2022/09/14 11:44:39;;;;;;;5.63;1.00;;;19.10;1.00;;;;;;5074224;28;20407;-76
2022/09/14 11:47:12;;;;;;;2.10;1.00;;;19.40;1.00;;;;;;5073683;28;20452;-74
2022/09/14 11:49:38;;;;;;;4.30;1.00;;;19.50;1.00;;;;;;5074656;28;20424;-73
2022/09/14 11:52:16;;;;;;;3.00;1.30;;;19.50;1.00;;;;;;5074644;28;20397;-75
2022/09/14 11:54:43;;;;;;;5.37;1.40;;;19.50;1.00;;;;;;5074598;28;20816;-76
2022/09/14 11:57:17;;;;;;;3.23;1.30;;;19.50;1.00;;;;;;5055926;28;20780;-76
2022/09/14 11:59:43;;;;;;;3.43;2.23;;;19.50;1.00;;;;;;5074892;28;20428;-75
2022/09/14 12:02:53;;;;;;;3.40;1.23;;;19.40;1.00;;;;;;5075484;28;20735;-76
2022/09/14 12:05:28;;;;;;;3.50;1.13;;;19.10;1.00;;;;;;5073736;28;20174;-73
2022/09/14 12:07:58;;;;;;;1.40;1.00;;;18.80;1.00;;;;;;5073394;28;20455;-73
2022/09/14 12:10:25;;;;;;;4.13;1.50;;;18.70;1.00;;;;;;5074219;28;20757;-76
2022/09/14 12:13:12;;;;;;;1.20;1.00;;;18.60;1.00;;;;;;5074263;28;20424;-76
2022/09/14 12:15:39;;;;;;;1.97;1.00;;;18.50;1.00;;;;;;5063618;28;20425;-76
2022/09/14 12:18:16;;;;;;;;;;;;;;;;;;;;;
2022/09/14 12:21:01;;;;;;;5.13;1.40;;;18.70;1.00;;;;;;5073951;28;20410;-75
2022/09/14 12:23:40;;;;;;;3.33;1.00;;;18.80;1.00;;;;;;5073984;28;20503;-73
2022/09/14 12:26:09;;;;;;;5.10;1.00;;;19.00;1.00;;;;;;5072946;28;20427;-76
2022/09/14 12:28:49;;;;;;;3.70;1.27;;;18.90;1.00;;;;;;5073725;28;20956;-76
2022/09/14 12:31:34;;;;;;;1.93;0.77;;;18.80;1.00;;;;;;5073769;28;20400;-76
2022/09/14 12:34:07;;;;;;;1.60;1.40;;;18.90;1.00;;;;;;5073795;28;20393;-69
2022/09/14 12:36:36;;;;;;;8.30;0.87;;;18.90;1.00;;;;;;5073319;28;20401;-74
2022/09/14 12:39:03;;;;;;;3.47;1.47;;;18.90;1.00;;;;;;5073761;28;20472;-72
2022/09/14 12:41:35;;;;;;;1.10;0.93;;;18.90;1.00;;;;;;5073669;28;20785;-70
2022/09/14 12:44:01;;;;;;;2.80;0.90;;;18.90;1.00;;;;;;5073205;28;20848;-70
2022/09/14 12:46:31;;;;;;;3.40;1.27;;;19.00;1.00;;;;;;5072693;28;20447;-69
2022/09/14 12:49:23;;;;;;;1.93;0.97;;;19.00;1.00;;;;;;5055687;28;20186;-74
2022/09/14 12:51:50;;;;;;;1.30;0.80;;;19.00;1.00;;;;;;5073486;28;20405;-74
2022/09/14 12:54:53;;;;;;;2.10;1.27;;;18.80;1.00;;;;;;5073433;28;20809;-70
2022/09/14 12:57:29;;;;;;;2.80;1.10;;;18.60;1.00;;;;;;5071928;28;20408;-74
2022/09/14 13:00:25;;;;;;;1.00;0.80;;;18.70;1.00;;;;;;5073159;28;20422;-70
2022/09/14 13:03:24;;;;;;;3.20;1.00;;;19.00;1.00;;;;;;5042710;28;20421;-75
2022/09/14 13:05:50;;;;;;;4.30;1.17;;;19.10;1.00;;;;;;5068384;28;20455;-74
2022/09/14 13:08:21;;;;;;;1.10;0.80;;;19.20;1.00;;;;;;5072561;28;20487;-74
2022/09/14 13:10:50;;;;;;;2.17;0.83;;;19.10;1.00;;;;;;5073397;28;20407;-75
2022/09/14 13:13:31;;;;;;;5.70;0.90;;;19.20;1.00;;;;;;5073195;28;20405;-75
2022/09/14 13:16:03;;;;;;;1.00;0.70;;;19.30;1.00;;;;;;5072925;28;20408;-71
2022/09/14 13:18:36;;;;;;;2.67;0.90;;;19.20;1.00;;;;;;5072923;28;20432;-74
2022/09/14 13:21:24;;;;;;;1.90;1.10;;;19.10;1.00;;;;;;5072641;28;20447;-74
2022/09/14 13:23:50;;;;;;;5.67;0.90;;;19.00;1.00;;;;;;5073037;28;20904;-74
2022/09/14 13:26:18;;;;;;;1.27;0.97;;;18.90;1.00;;;;;;5072378;28;20409;-69
2022/09/14 13:28:47;;;;;;;5.23;1.10;;;18.90;1.00;;;;;;5072868;28;20485;-69
2022/09/14 13:31:17;;;;;;;3.40;0.97;;;18.80;1.00;;;;;;5072977;28;20781;-74
2022/09/14 13:33:48;;;;;;;1.30;0.90;;;18.70;1.00;;;;;;5072957;28;20927;-74
2022/09/14 13:36:18;;;;;;;1.70;1.30;;;18.60;1.00;;;;;;5054241;28;20917;-70
2022/09/14 13:38:48;;;;;;;3.37;1.10;;;18.60;1.00;;;;;;5072711;28;20955;-73
2022/09/14 13:41:17;;;;;;;4.40;0.80;;;18.60;1.00;;;;;;5072301;28;20404;-69
2022/09/14 13:43:53;;;;;;;1.33;1.20;;;18.40;1.00;;;;;;5073019;28;20392;-71
2022/09/14 13:46:20;;;;;;;3.50;1.07;;;18.40;1.00;;;;;;5072044;28;20812;-74
2022/09/14 13:48:47;;;;;;;1.53;0.80;;;18.40;1.00;;;;;;5072621;28;20443;-75
2022/09/14 13:51:20;;;;;;;1.27;0.87;;;18.30;1.00;;;;;;5072975;28;20878;-69
2022/09/14 13:53:49;;;;;;;2.03;1.67;;;18.20;1.00;;;;;;5072834;28;20436;-75
2022/09/14 13:56:31;;;;;;;2.90;0.80;;;18.20;1.00;;;;;;5072071;28;20412;-75